Time;durP1;ratioP1;P1;durP2;ratioP2;P2;SDS_P1;SDS_P2;PMS_P1;PMS_P2;Temp;Humidity;BMP_temperature;BMP_pressure;BME280_temperature;BME280_humidity;BME280_pressure;Samples;Min_cycle;Max_cycle;Signal;HPM_P1;HPM_P2
2022/05/19 00:02:15;;;;;;;;;;;16.30;99.90;;;;;;5115790;28;20302;-79
2022/05/19 00:04:41;;;;;;;;;;;16.40;99.90;;;;;;5130060;27;19916;-79
2022/05/19 00:07:07;;;;;;;;;;;16.30;99.90;;;;;;5116097;28;19915;-79
2022/05/19 00:09:32;;;;;;;;;;;16.30;99.90;;;;;;5115439;28;20210;-79
2022/05/19 00:11:59;;;;;;;;;;;16.30;99.90;;;;;;5115778;28;19957;-79
2022/05/19 00:14:25;;;;;;;;;;;16.30;99.90;;;;;;5115157;28;19914;-80
2022/05/19 00:16:56;;;;;;;;;;;16.30;99.90;;;;;;5143528;27;19924;-80
2022/05/19 00:19:22;;;;;;;;;;;16.30;99.90;;;;;;5113409;27;19927;-79
2022/05/19 00:21:48;;;;;;;;;;;16.40;99.90;;;;;;5116276;28;20329;-79
2022/05/19 00:24:13;;;;;;;;;;;16.40;99.90;;;;;;5111915;27;19916;-81
2022/05/19 00:26:39;;;;;;;;;;;16.50;99.90;;;;;;5116271;28;20299;-78
2022/05/19 00:29:04;;;;;;;;;;;16.60;99.90;;;;;;5113939;28;20356;-78
2022/05/19 00:31:32;;;;;;;;;;;16.70;99.90;;;;;;5115652;28;19912;-80
2022/05/19 00:33:57;;;;;;;;;;;16.60;99.90;;;;;;5115153;27;19935;-78
2022/05/19 00:36:23;;;;;;;;;;;16.60;99.90;;;;;;5116385;28;20282;-79
2022/05/19 00:38:49;;;;;;;;;;;16.70;99.90;;;;;;5113951;28;20007;-80
2022/05/19 00:41:15;;;;;;;;;;;16.70;99.90;;;;;;5115514;28;19919;-80
2022/05/19 00:43:43;;;;;;;;;;;16.70;99.90;;;;;;5115063;28;19908;-80
2022/05/19 00:46:15;;;;;;;;;;;16.70;99.90;;;;;;5114986;27;20003;-79
2022/05/19 00:49:00;;;;;;;;;;;16.70;99.90;;;;;;5096322;28;20003;-78
2022/05/19 00:51:46;;;;;;;;;;;16.70;99.90;;;;;;5104376;28;19938;-78
2022/05/19 00:54:14;;;;;;;;;;;16.60;99.90;;;;;;5101711;28;19920;-78
2022/05/19 00:56:46;;;;;;;;;;;16.60;99.90;;;;;;5114741;28;19955;-75
2022/05/19 00:59:18;;;;;;;;;;;16.50;99.90;;;;;;5115237;28;19916;-78
2022/05/19 01:01:44;;;;;;;;;;;16.50;99.90;;;;;;5114176;28;19916;-78
2022/05/19 01:04:09;;;;;;;;;;;16.50;99.90;;;;;;5113602;28;19920;-78
2022/05/19 01:06:35;;;;;;;;;;;16.60;99.90;;;;;;5100898;28;19912;-78
2022/05/19 01:09:02;;;;;;;;;;;16.50;99.90;;;;;;5094358;28;19916;-77
2022/05/19 01:11:28;;;;;;;;;;;16.50;99.90;;;;;;5105835;28;19912;-78
2022/05/19 01:13:53;;;;;;;;;;;16.40;99.90;;;;;;5118149;27;19935;-77
2022/05/19 01:16:19;;;;;;;;;;;16.40;99.90;;;;;;5117953;27;20000;-78
2022/05/19 01:18:45;;;;;;;;;;;16.30;99.90;;;;;;5153134;27;19918;-77
2022/05/19 01:21:11;;;;;;;;;;;16.30;99.90;;;;;;5117779;28;19916;-77
2022/05/19 01:23:52;;;;;;;;;;;16.20;99.90;;;;;;5119176;28;19961;-77
2022/05/19 01:26:18;;;;;;;;;;;16.20;99.90;;;;;;5118751;28;20314;-77
2022/05/19 01:28:44;;;;;;;;;;;16.20;99.90;;;;;;5119717;28;20014;-78
2022/05/19 01:31:26;;;;;;;;;;;16.10;99.90;;;;;;5118387;28;19915;-78
2022/05/19 01:33:51;;;;;;;;;;;16.10;99.90;;;;;;5117387;27;20309;-78
2022/05/19 01:36:17;;;;;;;;;;;16.10;99.90;;;;;;5113530;28;19919;-79
2022/05/19 01:38:42;;;;;;;;;;;15.90;99.90;;;;;;5118600;27;19955;-79
2022/05/19 01:41:18;;;;;;;;;;;15.80;99.90;;;;;;5119534;28;19943;-78
2022/05/19 01:43:58;;;;;;;;;;;15.60;99.90;;;;;;5117991;28;19947;-78
2022/05/19 01:46:31;;;;;;;;;;;15.70;99.90;;;;;;5112170;28;19920;-78
2022/05/19 01:49:12;;;;;;;;;;;15.60;99.90;;;;;;5114023;28;20328;-77
2022/05/19 01:51:38;;;;;;;;;;;15.70;99.90;;;;;;5118334;28;19908;-78
2022/05/19 01:54:03;;;;;;;;;;;15.70;99.90;;;;;;5118092;28;19915;-79
2022/05/19 01:56:35;;;;;;;;;;;15.80;99.90;;;;;;5117166;28;19916;-78
2022/05/19 01:59:06;;;;;;;;;;;15.90;99.90;;;;;;5119074;28;19916;-78
2022/05/19 02:01:32;;;;;;;;;;;15.90;99.90;;;;;;5114690;28;19973;-79
2022/05/19 02:04:01;;;;;;;;;;;15.90;99.90;;;;;;5114756;28;19915;-78
2022/05/19 02:06:41;;;;;;;;;;;15.90;99.90;;;;;;5111613;28;19923;-79
2022/05/19 02:09:15;;;;;;;;;;;15.90;99.90;;;;;;5116097;27;20251;-78
2022/05/19 02:11:42;;;;;;;;;;;16.00;99.90;;;;;;5116885;28;19920;-77
2022/05/19 02:14:12;;;;;;;;;;;16.00;99.90;;;;;;5115950;28;19965;-77
2022/05/19 02:16:38;;;;;;;;;;;16.00;99.90;;;;;;5114583;28;19916;-79
2022/05/19 02:19:04;;;;;;;;;;;16.00;99.90;;;;;;5116796;28;19951;-79
2022/05/19 02:21:30;;;;;;;;;;;16.00;99.90;;;;;;5116672;28;19947;-79
2022/05/19 02:23:56;;;;;;;;;;;16.10;99.90;;;;;;5114250;27;20307;-79
2022/05/19 02:26:22;;;;;;;;;;;16.10;99.90;;;;;;5111594;27;20214;-77
2022/05/19 02:28:50;;;;;;;;;;;16.20;99.90;;;;;;5109381;28;19919;-77
2022/05/19 02:31:16;;;;;;;;;;;16.20;99.90;;;;;;5116707;28;20419;-77
2022/05/19 02:33:42;;;;;;;;;;;16.30;99.90;;;;;;5114156;28;19962;-77
2022/05/19 02:36:09;;;;;;;;;;;16.30;99.90;;;;;;5114149;27;19916;-79
2022/05/19 02:38:34;;;;;;;;;;;16.40;99.90;;;;;;5108552;27;19958;-78
2022/05/19 02:41:00;;;;;;;;;;;16.30;99.90;;;;;;5114612;28;20287;-77
2022/05/19 02:43:26;;;;;;;;;;;16.30;99.90;;;;;;5109430;28;19919;-77
2022/05/19 02:45:52;;;;;;;;;;;16.40;99.90;;;;;;5094236;28;20602;-78
2022/05/19 02:48:18;;;;;;;;;;;16.40;99.90;;;;;;5115716;28;19912;-78
2022/05/19 02:50:44;;;;;;;;;;;16.50;99.90;;;;;;5115291;28;19927;-78
2022/05/19 02:53:10;;;;;;;;;;;16.60;99.90;;;;;;5116855;28;20295;-79
2022/05/19 02:55:37;;;;;;;;;;;16.70;99.90;;;;;;5108506;28;19920;-79
2022/05/19 02:58:02;;;;;;;;;;;16.70;99.90;;;;;;5111751;28;19920;-79
2022/05/19 03:00:28;;;;;;;;;;;16.70;99.90;;;;;;5107948;27;19911;-80
2022/05/19 03:02:54;;;;;;;;;;;16.70;99.90;;;;;;5149728;27;19956;-78
2022/05/19 03:05:21;;;;;;;;;;;16.60;99.90;;;;;;5116703;28;20207;-79
2022/05/19 03:07:47;;;;;;;;;;;16.70;99.90;;;;;;5114733;27;20001;-79
2022/05/19 03:10:12;;;;;;;;;;;16.80;99.90;;;;;;5112162;28;19951;-74
2022/05/19 03:12:38;;;;;;;;;;;16.90;99.90;;;;;;5117893;28;19915;-75
2022/05/19 03:15:05;;;;;;;;;;;16.90;99.90;;;;;;5116854;28;19920;-74
2022/05/19 03:17:30;;;;;;;;;;;17.00;99.90;;;;;;5115805;28;19928;-76
2022/05/19 03:19:57;;;;;;;;;;;17.00;99.90;;;;;;5117436;28;19919;-76
2022/05/19 03:22:25;;;;;;;;;;;17.00;99.90;;;;;;5117798;28;19912;-75
2022/05/19 03:24:51;;;;;;;;;;;17.10;99.90;;;;;;5113726;28;19947;-74
2022/05/19 03:27:17;;;;;;;;;;;17.20;99.90;;;;;;5117341;28;19970;-74
2022/05/19 03:29:42;;;;;;;;;;;17.20;99.90;;;;;;5116300;28;19912;-74
2022/05/19 03:32:08;;;;;;;;;;;17.20;99.90;;;;;;5117347;28;19929;-74
2022/05/19 03:34:33;;;;;;;;;;;17.20;99.90;;;;;;5116161;28;20007;-75
2022/05/19 03:37:01;;;;;;;;;;;17.20;99.90;;;;;;5114266;28;19915;-74
2022/05/19 03:39:27;;;;;;;;;;;17.30;99.90;;;;;;5112708;28;19930;-75
2022/05/19 03:41:52;;;;;;;;;;;17.30;99.90;;;;;;5117371;28;20340;-74
2022/05/19 03:44:18;;;;;;;;;;;17.20;99.90;;;;;;5115600;27;19911;-74
2022/05/19 03:46:44;;;;;;;;;;;17.30;99.90;;;;;;5117151;28;19915;-74
2022/05/19 03:49:09;;;;;;;;;;;17.30;99.90;;;;;;5116383;28;20365;-75
2022/05/19 03:51:36;;;;;;;;;;;17.30;99.90;;;;;;5117155;28;20253;-75
2022/05/19 03:54:01;;;;;;;;;;;17.30;99.90;;;;;;5117209;28;20184;-75
2022/05/19 03:56:27;;;;;;;;;;;17.20;99.90;;;;;;5115194;28;19916;-75
2022/05/19 03:58:52;;;;;;;;;;;17.10;99.90;;;;;;5115899;28;19911;-75
2022/05/19 04:01:19;;;;;;;;;;;17.10;99.90;;;;;;5117376;28;20302;-74
2022/05/19 04:03:45;;;;;;;;;;;17.10;99.90;;;;;;5116742;28;19908;-74
2022/05/19 04:06:10;;;;;;;;;;;17.10;99.90;;;;;;5116436;28;20012;-75
2022/05/19 04:08:36;;;;;;;;;;;17.10;99.90;;;;;;5115967;27;20263;-76
2022/05/19 04:11:02;;;;;;;;;;;17.10;99.90;;;;;;5116950;28;19916;-75
2022/05/19 04:13:28;;;;;;;;;;;17.10;99.90;;;;;;5116948;28;19969;-74
2022/05/19 04:15:53;;;;;;;;;;;17.20;99.90;;;;;;5115244;27;20302;-74
2022/05/19 04:18:19;;;;;;;;;;;17.10;99.90;;;;;;5116004;27;20310;-74
2022/05/19 04:20:45;;;;;;;;;;;17.10;99.90;;;;;;5095230;28;20354;-74
2022/05/19 04:23:11;;;;;;;;;;;17.00;99.90;;;;;;5095873;28;20207;-75
2022/05/19 04:25:37;;;;;;;;;;;16.90;99.90;;;;;;5116572;28;19915;-75
2022/05/19 04:28:03;;;;;;;;;;;16.90;99.90;;;;;;5111331;28;20057;-76
2022/05/19 04:30:29;;;;;;;;;;;16.80;99.90;;;;;;5116753;28;20341;-75
2022/05/19 04:32:54;;;;;;;;;;;16.80;99.90;;;;;;5104858;28;19908;-75
2022/05/19 04:35:20;;;;;;;;;;;16.80;99.90;;;;;;5096126;28;19912;-75
2022/05/19 04:37:46;;;;;;;;;;;16.80;99.90;;;;;;5103694;27;19923;-74
2022/05/19 04:40:13;;;;;;;;;;;16.80;99.90;;;;;;5114769;28;20263;-75
2022/05/19 04:42:39;;;;;;;;;;;16.80;99.90;;;;;;5108988;28;19935;-75
2022/05/19 04:45:05;;;;;;;;;;;16.70;99.90;;;;;;5106650;28;20299;-75
2022/05/19 04:47:31;;;;;;;;;;;16.70;99.90;;;;;;5104184;28;20441;-76
2022/05/19 04:49:56;;;;;;;;;;;16.70;99.90;;;;;;5109121;28;19911;-76
2022/05/19 04:52:22;;;;;;;;;;;16.80;99.90;;;;;;5108212;28;19911;-77
2022/05/19 04:54:48;;;;;;;;;;;16.70;99.90;;;;;;5107286;28;19951;-77
2022/05/19 04:57:13;;;;;;;;;;;16.70;99.90;;;;;;5112752;28;19915;-77
2022/05/19 04:59:40;;;;;;;;;;;16.70;99.90;;;;;;5105821;28;20210;-77
2022/05/19 05:02:05;;;;;;;;;;;16.70;99.90;;;;;;5107581;28;19912;-76
2022/05/19 05:04:31;;;;;;;;;;;16.60;99.90;;;;;;5108447;28;19922;-76
2022/05/19 05:06:57;;;;;;;;;;;16.60;99.90;;;;;;5113067;28;19907;-77
2022/05/19 05:09:23;;;;;;;;;;;16.60;99.90;;;;;;5112207;28;19996;-77
2022/05/19 05:11:48;;;;;;;;;;;16.60;99.90;;;;;;5113805;28;19915;-76
2022/05/19 05:14:16;;;;;;;;;;;16.60;99.90;;;;;;5114483;28;20306;-75
2022/05/19 05:16:43;;;;;;;;;;;16.60;99.90;;;;;;5112006;28;19916;-76
2022/05/19 05:19:08;;;;;;;;;;;16.70;99.90;;;;;;5111764;28;19919;-75
2022/05/19 05:21:34;;;;;;;;;;;16.70;99.90;;;;;;5110302;28;20322;-75
2022/05/19 05:23:59;;;;;;;;;;;16.80;99.90;;;;;;5111852;28;19912;-75
2022/05/19 05:26:25;;;;;;;;;;;16.80;99.90;;;;;;5109758;28;20539;-75
2022/05/19 05:28:50;;;;;;;;;;;16.80;99.90;;;;;;5112273;28;19923;-76
2022/05/19 05:31:16;;;;;;;;;;;16.90;99.90;;;;;;5112197;28;19947;-76
2022/05/19 05:33:41;;;;;;;;;;;16.90;99.90;;;;;;5112204;28;20015;-75
2022/05/19 05:36:07;;;;;;;;;;;16.90;99.90;;;;;;5113776;28;19920;-75
2022/05/19 05:38:33;;;;;;;;;;;17.00;99.90;;;;;;5106194;28;19981;-76
2022/05/19 05:40:59;;;;;;;;;;;17.00;99.90;;;;;;5111127;28;19973;-75
2022/05/19 05:43:24;;;;;;;;;;;16.90;99.90;;;;;;5091531;28;19916;-75
2022/05/19 05:45:51;;;;;;;;;;;17.00;99.90;;;;;;5108113;28;19935;-76
2022/05/19 05:48:17;;;;;;;;;;;17.00;99.90;;;;;;5113275;28;20268;-75
2022/05/19 05:50:42;;;;;;;;;;;17.00;99.90;;;;;;5106467;28;19916;-75
2022/05/19 05:53:08;;;;;;;;;;;17.10;99.90;;;;;;5104303;28;19968;-75
2022/05/19 05:55:35;;;;;;;;;;;17.10;99.90;;;;;;5109215;28;20227;-75
2022/05/19 05:58:04;;;;;;;;;;;17.20;99.90;;;;;;5112475;28;19919;-75
2022/05/19 06:00:30;;;;;;;;;;;17.20;99.90;;;;;;5112894;28;19921;-75
2022/05/19 06:02:55;;;;;;;;;;;17.30;99.90;;;;;;5117495;27;19964;-75
2022/05/19 06:05:25;;;;;;;;;;;17.40;99.90;;;;;;5117325;28;20080;-75
2022/05/19 06:07:52;;;;;;;;;;;17.50;99.90;;;;;;5117484;28;20313;-75
2022/05/19 06:10:18;;;;;;;;;;;17.60;99.90;;;;;;5116960;27;19912;-74
2022/05/19 06:12:43;;;;;;;;;;;17.70;99.90;;;;;;5115949;28;20240;-74
2022/05/19 06:15:11;;;;;;;;;;;17.80;99.90;;;;;;5113875;28;19923;-75
2022/05/19 06:17:39;;;;;;;;;;;17.80;99.90;;;;;;5114008;28;20258;-74
2022/05/19 06:20:05;;;;;;;;;;;17.90;99.90;;;;;;5115317;28;19916;-74
2022/05/19 06:22:31;;;;;;;;;;;18.00;99.90;;;;;;5118994;27;19908;-75
2022/05/19 06:24:57;;;;;;;;;;;18.10;99.90;;;;;;5118462;28;19915;-74
2022/05/19 06:27:22;;;;;;;;;;;18.20;99.90;;;;;;5117610;28;19907;-74
2022/05/19 06:29:48;;;;;;;;;;;18.20;99.90;;;;;;5118711;28;20306;-74
2022/05/19 06:32:13;;;;;;;;;;;18.20;99.90;;;;;;5118918;28;19973;-74
2022/05/19 06:34:39;;;;;;;;;;;18.20;99.90;;;;;;5114893;28;20226;-74
2022/05/19 06:37:04;;;;;;;;;;;18.20;99.90;;;;;;5108197;28;20404;-76
2022/05/19 06:39:30;;;;;;;;;;;18.20;99.90;;;;;;5115203;28;19927;-75
2022/05/19 06:42:02;;;;;;;;;;;18.20;99.90;;;;;;5109154;28;19915;-75
2022/05/19 06:44:32;;;;;;;;;;;18.30;99.90;;;;;;5093131;28;19920;-75
2022/05/19 06:46:58;;;;;;;;;;;18.30;99.90;;;;;;5109574;28;19916;-75
2022/05/19 06:49:24;;;;;;;;;;;18.30;99.90;;;;;;5116432;28;20291;-75
2022/05/19 06:51:49;;;;;;;;;;;18.40;99.90;;;;;;5113520;27;19912;-74
2022/05/19 06:54:15;;;;;;;;;;;18.40;99.90;;;;;;5113673;28;19916;-75
2022/05/19 06:56:40;;;;;;;;;;;18.30;99.90;;;;;;5112551;28;19919;-75
2022/05/19 06:59:07;;;;;;;;;;;18.40;99.90;;;;;;5113665;28;19923;-75
2022/05/19 07:01:32;;;;;;;;;;;18.40;99.90;;;;;;5106254;28;19916;-76
2022/05/19 07:03:58;;;;;;;;;;;18.60;99.90;;;;;;5109073;28;20268;-75
2022/05/19 07:06:24;;;;;;;;;;;18.70;99.90;;;;;;5114405;28;19912;-76
2022/05/19 07:08:50;;;;;;;;;;;18.90;99.90;;;;;;5112020;28;19916;-75
2022/05/19 07:11:25;;;;;;;;;;;18.90;99.90;;;;;;5102079;28;19960;-75
2022/05/19 07:13:51;;;;;;;;;;;19.00;99.90;;;;;;5115262;28;19911;-75
2022/05/19 07:16:17;;;;;;;;;;;19.10;99.90;;;;;;5114073;28;19946;-75
2022/05/19 07:18:42;;;;;;;;;;;19.20;99.90;;;;;;5116110;28;20188;-75
2022/05/19 07:21:09;;;;;;;;;;;19.20;99.90;;;;;;5109587;28;19996;-75
2022/05/19 07:23:36;;;;;;;;;;;19.40;99.90;;;;;;5110704;28;19920;-76
2022/05/19 07:26:01;;;;;;;;;;;19.50;99.90;;;;;;5115268;28;20366;-76
2022/05/19 07:28:27;;;;;;;;;;;19.50;99.90;;;;;;5113592;28;19959;-76
2022/05/19 07:30:52;;;;;;;;;;;19.80;99.90;;;;;;5107491;28;19916;-76
2022/05/19 07:33:18;;;;;;;;;;;20.00;99.90;;;;;;5107304;28;19968;-75
2022/05/19 07:35:47;;;;;;;;;;;20.30;99.90;;;;;;5115586;28;19919;-75
2022/05/19 07:38:14;;;;;;;;;;;20.40;99.90;;;;;;5107462;28;19920;-75
2022/05/19 07:40:41;;;;;;;;;;;20.50;99.90;;;;;;5108033;28;19963;-77
2022/05/19 07:45:51;;;;;;;;;;;20.80;99.90;;;;;;5115969;28;20504;-76
2022/05/19 07:48:16;;;;;;;;;;;20.80;99.90;;;;;;5115344;28;19947;-76
2022/05/19 07:50:42;;;;;;;;;;;20.80;99.90;;;;;;5106056;28;20302;-75
2022/05/19 07:53:07;;;;;;;;;;;20.80;99.90;;;;;;5113509;28;20196;-75
2022/05/19 07:55:33;;;;;;;;;;;20.70;99.90;;;;;;5115034;28;19958;-75
2022/05/19 07:57:59;;;;;;;;;;;20.70;99.90;;;;;;5112658;27;19922;-75
2022/05/19 08:00:24;;;;;;;;;;;20.60;99.90;;;;;;5115383;28;19918;-76
2022/05/19 08:02:50;;;;;;;;;;;20.60;99.90;;;;;;5111665;28;19921;-75
2022/05/19 08:05:16;;;;;;;;;;;20.80;99.90;;;;;;5113033;28;20326;-76
2022/05/19 08:07:41;;;;;;;;;;;20.80;99.90;;;;;;5105848;28;20256;-75
2022/05/19 08:10:25;;;;;;;;;;;20.90;99.90;;;;;;5113012;28;19927;-75
2022/05/19 08:15:36;;;;;;;;;;;21.20;99.90;;;;;;5114330;28;19933;-75
2022/05/19 08:18:28;;;;;;;;;;;21.30;99.90;;;;;;5113533;28;19919;-74
2022/05/19 08:20:58;;;;;;;;;;;21.30;99.90;;;;;;5110513;28;20271;-75
2022/05/19 08:23:28;;;;;;;;;;;21.30;99.90;;;;;;5112259;28;19927;-74
2022/05/19 08:25:54;;;;;;;;;;;21.30;99.90;;;;;;5113474;28;19998;-74
2022/05/19 08:28:20;;;;;;;;;;;21.30;99.90;;;;;;5111803;28;19919;-75
2022/05/19 08:30:47;;;;;;;;;;;21.30;99.90;;;;;;5113828;28;19915;-75
2022/05/19 08:33:13;;;;;;;;;;;21.30;99.90;;;;;;5112010;28;19939;-75
2022/05/19 08:35:39;;;;;;;;;;;21.20;99.90;;;;;;5089246;28;19990;-75
2022/05/19 08:38:04;;;;;;;;;;;21.40;99.90;;;;;;5112223;28;20030;-74
2022/05/19 08:40:33;;;;;;;;;;;21.30;99.90;;;;;;5111941;28;19927;-74
2022/05/19 08:42:59;;;;;;;;;;;21.50;99.90;;;;;;5113357;28;19976;-75
2022/05/19 08:45:28;;;;;;;;;;;21.70;99.90;;;;;;5111790;28;19961;-74
2022/05/19 08:48:00;;;;;;;;;;;22.00;99.90;;;;;;5112402;28;20366;-74
2022/05/19 08:50:31;;;;;;;;;;;22.20;99.90;;;;;;5111367;28;19915;-75
2022/05/19 08:52:57;;;;;;;;;;;22.40;99.90;;;;;;5113792;28;19919;-74
2022/05/19 08:55:23;;;;;;;;;;;22.60;99.90;;;;;;5104862;28;19935;-74
2022/05/19 08:57:54;;;;;;;;;;;22.60;99.90;;;;;;5113029;28;20447;-74
2022/05/19 09:00:25;;;;;;;;;;;22.50;99.90;;;;;;5113386;28;19934;-74
2022/05/19 09:02:54;;;;;;;;;;;22.30;99.90;;;;;;5102656;28;20072;-74
2022/05/19 09:05:22;;;;;;;;;;;22.30;99.90;;;;;;5109208;28;19919;-74
2022/05/19 09:07:56;;;;;;;;;;;22.30;99.90;;;;;;5113322;28;20056;-74
2022/05/19 09:10:29;;;;;;;;;;;22.10;99.90;;;;;;5112940;28;20014;-74
2022/05/19 09:13:22;;;;;;;;;;;22.20;99.90;;;;;;5111799;28;20294;-74
2022/05/19 09:15:48;;;;;;;;;;;22.80;99.90;;;;;;5085149;28;19922;-74
2022/05/19 09:18:15;;;;;;;;;;;23.50;99.90;;;;;;5109941;28;19915;-75
2022/05/19 09:20:44;;;;;;;;;;;23.70;99.90;;;;;;5110724;28;19923;-74
2022/05/19 09:23:10;;;;;;;;;;;23.60;99.90;;;;;;5105381;28;20042;-74
2022/05/19 09:25:39;;;;;;;;;;;23.90;99.90;;;;;;5112676;28;20019;-74
2022/05/19 09:28:05;;;;;;;;;;;24.20;99.90;;;;;;5110839;28;20010;-75
2022/05/19 09:30:36;;;;;;;;;;;24.40;99.90;;;;;;5111300;28;20014;-74
2022/05/19 09:33:05;;;;;;;;;;;24.50;99.90;;;;;;5107077;28;20314;-74
2022/05/19 09:35:36;;;;;;;;;;;24.60;99.90;;;;;;5110490;28;19920;-74
2022/05/19 09:38:13;;;;;;;;;;;24.50;99.90;;;;;;5115819;28;19943;-74
2022/05/19 09:40:40;;;;;;;;;;;24.50;99.90;;;;;;5109682;28;20297;-74
2022/05/19 09:43:08;;;;;;;;;;;24.40;99.90;;;;;;5114130;28;19915;-74
2022/05/19 09:45:38;;;;;;;;;;;24.50;99.90;;;;;;5118434;28;19911;-74
2022/05/19 09:48:06;;;;;;;;;;;24.80;99.90;;;;;;5109221;28;19966;-74
2022/05/19 09:50:37;;;;;;;;;;;25.10;99.90;;;;;;5118641;28;19972;-74
2022/05/19 09:53:04;;;;;;;;;;;25.10;99.90;;;;;;5116990;28;19938;-73
2022/05/19 09:55:30;;;;;;;;;;;24.80;99.90;;;;;;5114501;28;20254;-74
2022/05/19 09:57:57;;;;;;;;;;;24.80;99.90;;;;;;5113636;28;19999;-75
2022/05/19 10:00:25;;;;;;;;;;;24.50;99.90;;;;;;5119095;28;20010;-75
2022/05/19 10:02:55;;;;;;;;;;;24.60;99.90;;;;;;5119535;28;19960;-75
2022/05/19 10:05:25;;;;;;;;;;;25.00;99.90;;;;;;5103103;28;19916;-75
2022/05/19 10:07:54;;;;;;;;;;;25.50;99.90;;;;;;5115708;28;20329;-75
2022/05/19 10:10:23;;;;;;;;;;;25.80;99.90;;;;;;5112404;28;19919;-75
2022/05/19 10:12:49;;;;;;;;;;;25.90;99.90;;;;;;5116166;28;20333;-74
2022/05/19 10:15:15;;;;;;;;;;;26.10;99.90;;;;;;5112533;28;19908;-75
2022/05/19 10:17:50;;;;;;;;;;;26.40;99.90;;;;;;5118701;28;19920;-75
2022/05/19 10:20:23;;;;;;;;;;;26.50;99.90;;;;;;5116755;27;19965;-74
2022/05/19 10:22:54;;;;;;;;;;;26.40;99.90;;;;;;5118523;28;19912;-75
2022/05/19 10:25:19;;;;;;;;;;;26.50;99.90;;;;;;5117335;28;20002;-77
2022/05/19 10:31:04;;;;;;;;;;;26.30;99.90;;;;;;5106265;28;20218;-76
2022/05/19 10:33:32;;;;;;;;;;;26.40;99.90;;;;;;5118886;28;19907;-77
2022/05/19 10:36:03;;;;;;;;;;;26.60;99.90;;;;;;5118590;28;20247;-78
2022/05/19 10:38:28;;;;;;;;;;;26.80;99.90;;;;;;5117012;28;19935;-77
2022/05/19 10:40:54;;;;;;;;;;;27.20;99.90;;;;;;5117655;28;19908;-77
2022/05/19 10:43:19;;;;;;;;;;;27.50;99.90;;;;;;5094176;28;20261;-76
2022/05/19 10:45:49;;;;;;;;;;;27.90;99.90;;;;;;5117772;28;19918;-77
2022/05/19 10:48:18;;;;;;;;;;;27.90;99.90;;;;;;5114469;28;19919;-77
2022/05/19 10:50:55;;;;;;;;;;;27.60;99.90;;;;;;5098431;28;19909;-77
2022/05/19 10:53:27;;;;;;;;;;;27.20;99.90;;;;;;5112027;28;19918;-76
2022/05/19 10:55:59;;;;;;;;;;;27.00;99.90;;;;;;5116553;28;19935;-77
2022/05/19 10:58:30;;;;;;;;;;;26.70;99.90;;;;;;5115119;28;19916;-76
2022/05/19 11:01:03;;;;;;;;;;;26.40;99.90;;;;;;5112677;28;19916;-77
2022/05/19 11:03:41;;;;;;;;;;;26.00;99.90;;;;;;5142224;27;19961;-76
2022/05/19 11:06:10;;;;;;;;;;;25.50;99.90;;;;;;5116742;28;19912;-76
2022/05/19 11:08:44;;;;;;;;;;;25.10;99.90;;;;;;5114849;28;19911;-76
2022/05/19 11:11:10;;;;;;;;;;;24.50;99.90;;;;;;5115021;28;19912;-75
2022/05/19 11:13:51;;;;;;;;;;;24.20;99.90;;;;;;5105996;28;20077;-76
2022/05/19 11:16:19;;;;;;;;;;;23.80;99.90;;;;;;5108573;27;19969;-76
2022/05/19 11:18:54;;;;;;;;;;;23.50;99.90;;;;;;5111346;27;19911;-75
2022/05/19 11:21:23;;;;;;;;;;;23.30;99.90;;;;;;5115758;28;19908;-76
2022/05/19 11:23:48;;;;;;;;;;;23.10;99.90;;;;;;5113286;27;19912;-75
2022/05/19 11:26:27;;;;;;;;;;;22.90;99.90;;;;;;5108751;28;19920;-75
2022/05/19 11:29:05;;;;;;;;;;;22.70;99.90;;;;;;5102904;27;19919;-76
2022/05/19 11:31:33;;;;;;;;;;;22.70;99.90;;;;;;5104371;27;20280;-75
2022/05/19 11:33:59;;;;;;;;;;;22.60;99.90;;;;;;5105030;27;19991;-76
2022/05/19 11:36:37;;;;;;;;;;;22.40;99.90;;;;;;5102417;28;19916;-76
2022/05/19 11:39:27;;;;;;;;;;;22.20;99.90;;;;;;5104478;27;20294;-76
2022/05/19 11:41:55;;;;;;;;;;;22.00;99.90;;;;;;5102539;28;20015;-75
2022/05/19 11:44:23;;;;;;;;;;;21.90;99.90;;;;;;5108341;28;19919;-74
2022/05/19 11:46:59;;;;;;;;;;;21.10;99.90;;;;;;5112515;28;19919;-76
2022/05/19 11:55:25;;;;;;;;;;;19.10;99.90;;;;;;5111449;28;20210;-75
2022/05/19 11:58:03;;;;;;;;;;;18.80;99.90;;;;;;5112760;28;19920;-74
2022/05/19 12:00:32;;;;;;;;;;;18.80;99.90;;;;;;5113466;28;19926;-75
2022/05/19 12:03:04;;;;;;;;;;;18.70;99.90;;;;;;5113713;28;19919;-75
2022/05/19 12:05:36;;;;;;;;;;;18.70;99.90;;;;;;5113598;28;19916;-75
2022/05/19 12:08:25;;;;;;;;;;;18.70;99.90;;;;;;5112965;28;19938;-75
2022/05/19 12:10:55;;;;;;;;;;;18.70;99.90;;;;;;5128448;27;20330;-75
2022/05/19 12:13:24;;;;;;;;;;;18.70;99.90;;;;;;5112220;28;19915;-74
2022/05/19 12:15:57;;;;;;;;;;;18.70;99.90;;;;;;5109449;28;20041;-74
2022/05/19 12:18:22;;;;;;;;;;;18.70;99.90;;;;;;5092781;28;19924;-75
2022/05/19 12:20:53;;;;;;;;;;;18.70;99.90;;;;;;5115613;27;19908;-75
2022/05/19 12:23:24;;;;;;;;;;;18.70;99.90;;;;;;5110860;28;20391;-74
2022/05/19 12:25:52;;;;;;;;;;;18.70;99.90;;;;;;5111734;28;19920;-74
2022/05/19 12:28:17;;;;;;;;;;;18.60;99.90;;;;;;5112307;27;19920;-74
2022/05/19 12:33:49;;;;;;;;;;;18.40;99.90;;;;;;5108132;28;20002;-74
2022/05/19 12:36:36;;;;;;;;;;;18.40;99.90;;;;;;5111265;28;19916;-75
2022/05/19 12:39:08;;;;;;;;;;;18.40;99.90;;;;;;5114089;28;20241;-75
2022/05/19 12:41:37;;;;;;;;;;;18.50;99.90;;;;;;5112113;28;19918;-75
2022/05/19 12:44:21;;;;;;;;;;;18.50;99.90;;;;;;5112415;28;19964;-74
2022/05/19 12:46:55;;;;;;;;;;;18.40;99.90;;;;;;5110349;28;20002;-75
2022/05/19 12:49:24;;;;;;;;;;;18.30;99.90;;;;;;5113352;28;19916;-74
2022/05/19 12:51:57;;;;;;;;;;;18.20;99.90;;;;;;5111439;28;20030;-74
2022/05/19 12:54:33;;;;;;;;;;;18.20;99.90;;;;;;5113395;28;20007;-75
2022/05/19 12:57:19;;;;;;;;;;;18.20;99.90;;;;;;5110828;28;19923;-75
2022/05/19 12:59:48;;;;;;;;;;;18.20;99.90;;;;;;5098047;28;19962;-75
2022/05/19 13:02:35;;;;;;;;;;;18.20;99.90;;;;;;5111451;28;19916;-75
2022/05/19 13:05:04;;;;;;;;;;;18.20;99.90;;;;;;5114425;28;19942;-74
2022/05/19 13:07:35;;;;;;;;;;;18.20;99.90;;;;;;5114045;28;20463;-75
2022/05/19 13:10:01;;;;;;;;;;;18.20;99.90;;;;;;5111063;28;20030;-74
2022/05/19 13:12:30;;;;;;;;;;;18.30;99.90;;;;;;5118754;28;20010;-75
2022/05/19 13:14:57;;;;;;;;;;;18.40;99.90;;;;;;5117072;28;19918;-75
2022/05/19 13:17:28;;;;;;;;;;;18.40;99.90;;;;;;5117024;27;20030;-75
2022/05/19 13:19:56;;;;;;;;;;;18.50;99.90;;;;;;5117862;28;20535;-74
2022/05/19 13:22:24;;;;;;;;;;;18.60;99.90;;;;;;5116354;28;19916;-75
2022/05/19 13:24:50;;;;;;;;;;;18.70;99.90;;;;;;5115355;28;19919;-75
2022/05/19 13:30:26;;;;;;;;;;;19.10;99.90;;;;;;5116993;28;19973;-75
2022/05/19 13:33:02;;;;;;;;;;;19.40;99.90;;;;;;5116965;28;20306;-76
2022/05/19 13:35:28;;;;;;;;;;;19.60;99.90;;;;;;5117164;27;19919;-75
2022/05/19 13:37:54;;;;;;;;;;;19.90;99.90;;;;;;5108706;28;20272;-75
2022/05/19 13:40:27;;;;;;;;;;;20.10;99.90;;;;;;5115469;27;19916;-75
2022/05/19 13:42:58;;;;;;;;;;;20.40;99.90;;;;;;5116641;28;19912;-75
2022/05/19 13:45:25;;;;;;;;;;;20.80;99.90;;;;;;5114568;28;19962;-75
2022/05/19 13:47:51;;;;;;;;;;;21.30;99.90;;;;;;5114715;27;20532;-76
2022/05/19 13:50:27;;;;;;;;;;;21.60;99.90;;;;;;5115405;28;19912;-76
2022/05/19 13:53:04;;;;;;;;;;;21.70;99.90;;;;;;5117555;28;19978;-76
2022/05/19 13:55:31;;;;;;;;;;;22.30;99.90;;;;;;5117519;28;20277;-77
2022/05/19 13:57:57;;;;;;;;;;;22.50;99.90;;;;;;5119136;28;19916;-77
2022/05/19 14:00:25;;;;;;;;;;;22.70;99.90;;;;;;5103724;27;19916;-77
2022/05/19 14:02:52;;;;;;;;;;;23.10;99.90;;;;;;5097759;28;19955;-76
2022/05/19 14:05:37;;;;;;;;;;;23.50;99.90;;;;;;5099648;27;19928;-77
2022/05/19 14:08:09;;;;;;;;;;;23.80;99.90;;;;;;5118552;28;19915;-77
2022/05/19 14:10:46;;;;;;;;;;;23.90;99.90;;;;;;5118805;28;19991;-77
2022/05/19 14:13:14;;;;;;;;;;;24.10;99.90;;;;;;5116220;28;19919;-77
2022/05/19 14:15:47;;;;;;;;;;;24.40;99.90;;;;;;5117414;27;19919;-77
2022/05/19 14:18:14;;;;;;;;;;;24.70;99.90;;;;;;5112712;28;20310;-76
2022/05/19 14:20:44;;;;;;;;;;;25.00;99.90;;;;;;5118441;28;19907;-76
2022/05/19 14:23:17;;;;;;;;;;;25.00;99.90;;;;;;5113366;28;19961;-76
2022/05/19 14:25:43;;;;;;;;;;;25.20;99.90;;;;;;5098625;28;20339;-77
2022/05/19 14:28:22;;;;;;;;;;;25.30;99.90;;;;;;5113395;27;19963;-77
2022/05/19 14:30:47;;;;;;;;;;;25.10;99.90;;;;;;5105591;28;20214;-77
2022/05/19 14:33:19;;;;;;;;;;;25.20;99.90;;;;;;5134399;27;19912;-76
2022/05/19 14:35:54;;;;;;;;;;;25.30;99.90;;;;;;5101495;27;19931;-77
2022/05/19 14:38:30;;;;;;;;;;;25.20;99.90;;;;;;5118263;28;19927;-76
2022/05/19 14:43:46;;;;;;;;;;;25.30;99.90;;;;;;5117550;28;19923;-76
2022/05/19 14:46:13;;;;;;;;;;;25.00;99.90;;;;;;5109335;28;19919;-75
2022/05/19 14:48:42;;;;;;;;;;;24.80;99.90;;;;;;5115327;28;20333;-76